createdAt,value
2022-08-26T00:02:23.738Z,11.33
2022-08-26T00:04:50.207Z,11.00
2022-08-26T00:07:16.758Z,13.00
2022-08-26T00:12:36.204Z,11.00
2022-08-26T00:15:05.093Z,9.67
2022-08-26T00:17:31.600Z,10.00
2022-08-26T00:19:58.049Z,10.00
2022-08-26T00:22:25.389Z,12.00
2022-08-26T00:27:48.862Z,9.00
2022-08-26T00:30:15.356Z,12.00
2022-08-26T00:32:42.039Z,11.50
2022-08-26T00:35:13.702Z,12.00
2022-08-26T00:37:42.264Z,9.60
2022-08-26T00:42:53.839Z,11.50
2022-08-26T00:45:20.328Z,11.50
2022-08-26T00:47:49.245Z,11.00
2022-08-26T00:50:17.005Z,12.00
2022-08-26T00:52:44.026Z,12.00
2022-08-26T00:57:54.684Z,13.50
2022-08-26T01:00:21.173Z,12.50
2022-08-26T01:02:48.555Z,12.00
2022-08-26T01:05:15.705Z,13.00
2022-08-26T01:07:43.561Z,11.33
2022-08-26T01:12:53.807Z,11.00
2022-08-26T01:15:21.144Z,13.00
2022-08-26T01:17:48.580Z,11.33
2022-08-26T01:20:15.972Z,13.00
2022-08-26T01:22:42.431Z,13.00
2022-08-26T01:28:04.180Z,13.50
2022-08-26T01:30:30.628Z,11.00
2022-08-26T01:32:57.900Z,10.00
2022-08-26T01:35:24.385Z,12.00
2022-08-26T01:37:50.833Z,11.50
2022-08-26T01:43:13.338Z,13.50
2022-08-26T01:45:39.823Z,13.00
2022-08-26T01:48:06.296Z,12.00
2022-08-26T01:50:33.694Z,12.67
2022-08-26T01:53:01.082Z,14.00
2022-08-26T01:58:23.483Z,13.00
2022-08-26T02:00:50.924Z,12.00
2022-08-26T02:03:17.447Z,12.00
2022-08-26T02:05:44.824Z,12.00
2022-08-26T02:08:15.322Z,13.00
2022-08-26T02:13:46.484Z,12.33
2022-08-26T02:16:14.147Z,12.67
2022-08-26T02:18:41.456Z,3.00
2022-08-26T02:21:09.406Z,11.00
2022-08-26T02:23:36.777Z,12.33
2022-08-26T02:28:48.381Z,12.00
2022-08-26T02:31:14.970Z,12.00
2022-08-26T02:33:42.939Z,10.67
2022-08-26T02:36:09.661Z,13.50
2022-08-26T02:38:39.504Z,12.67
2022-08-26T02:43:50.528Z,13.00
2022-08-26T02:46:28.047Z,11.00
2022-08-26T02:48:57.391Z,11.00
2022-08-26T02:51:25.331Z,13.33
2022-08-26T02:53:51.781Z,12.00
2022-08-26T02:59:13.202Z,14.50
2022-08-26T03:01:40.654Z,11.67
2022-08-26T03:04:08.122Z,13.00
2022-08-26T03:06:35.498Z,12.33
2022-08-26T03:09:04.238Z,11.00
2022-08-26T03:14:25.513Z,11.33
2022-08-26T03:16:53.035Z,13.50
2022-08-26T03:19:20.428Z,12.00
2022-08-26T03:21:47.791Z,12.67
2022-08-26T03:24:14.265Z,15.00
2022-08-26T03:29:35.528Z,12.00
2022-08-26T03:32:02.016Z,13.00
2022-08-26T03:34:29.405Z,13.67
2022-08-26T03:36:56.781Z,13.33
2022-08-26T03:39:24.178Z,14.67
2022-08-26T03:44:35.868Z,10.50
2022-08-26T03:47:04.523Z,12.00
2022-08-26T03:49:33.352Z,14.67
2022-08-26T03:52:01.691Z,11.20
2022-08-26T03:54:29.046Z,12.00
2022-08-26T03:59:50.815Z,15.00
2022-08-26T04:02:19.134Z,14.33
2022-08-26T04:04:45.606Z,12.00
2022-08-26T04:07:13.005Z,13.00
2022-08-26T04:09:39.466Z,12.50
2022-08-26T04:15:00.291Z,12.00
2022-08-26T04:17:26.719Z,9.00
2022-08-26T04:19:53.188Z,12.00
2022-08-26T04:22:24.872Z,12.00
2022-08-26T04:24:51.561Z,13.00
2022-08-26T04:30:02.122Z,13.00
2022-08-26T04:32:28.607Z,14.00
2022-08-26T04:34:55.970Z,12.67
2022-08-26T04:37:25.328Z,13.67
2022-08-26T04:39:53.072Z,14.00
2022-08-26T04:45:05.837Z,12.00
2022-08-26T04:47:36.517Z,11.50
2022-08-26T04:50:03.095Z,14.00
2022-08-26T04:52:30.559Z,13.00
2022-08-26T04:54:58.402Z,13.00
2022-08-26T05:00:09.770Z,12.67
2022-08-26T05:02:38.505Z,14.00
2022-08-26T05:05:06.196Z,13.00
2022-08-26T05:07:33.026Z,14.50
2022-08-26T05:09:59.775Z,14.00
2022-08-26T05:15:10.277Z,15.00
2022-08-26T05:17:37.650Z,14.33
2022-08-26T05:20:04.813Z,13.50
2022-08-26T05:22:33.876Z,16.00
2022-08-26T05:25:01.743Z,15.00
2022-08-26T05:30:13.822Z,13.00
2022-08-26T05:32:41.420Z,14.00
2022-08-26T05:35:09.647Z,12.67
2022-08-26T05:37:37.358Z,12.00
2022-08-26T05:40:05.102Z,12.67
2022-08-26T05:45:27.572Z,13.00
2022-08-26T05:47:54.092Z,13.00
2022-08-26T05:50:21.458Z,12.00
2022-08-26T05:52:50.240Z,12.00
2022-08-26T05:55:17.587Z,12.67
2022-08-26T06:00:41.637Z,13.00
2022-08-26T06:03:08.337Z,12.00
2022-08-26T06:05:38.269Z,13.00
2022-08-26T06:08:05.709Z,11.50
2022-08-26T06:10:33.736Z,12.00
2022-08-26T06:15:54.679Z,11.00
2022-08-26T06:18:22.443Z,11.00
2022-08-26T06:20:56.799Z,11.00
2022-08-26T06:23:24.951Z,13.00
2022-08-26T06:25:51.448Z,16.50
2022-08-26T06:31:14.840Z,19.00
2022-08-26T06:33:41.393Z,16.00
2022-08-26T06:36:08.810Z,16.50
2022-08-26T06:38:36.513Z,16.00
2022-08-26T06:41:03.597Z,16.50
2022-08-26T06:46:26.079Z,15.00
2022-08-26T06:48:52.649Z,14.00
2022-08-26T06:51:19.115Z,12.00
2022-08-26T06:53:49.775Z,12.00
2022-08-26T06:56:16.220Z,12.00
2022-08-26T07:01:27.186Z,10.00
2022-08-26T07:03:54.255Z,10.00
2022-08-26T07:06:23.461Z,9.00
2022-08-26T07:08:49.890Z,10.00
2022-08-26T07:11:16.427Z,9.00
2022-08-26T07:16:27.230Z,8.50
2022-08-26T07:18:55.807Z,8.60
2022-08-26T07:21:23.527Z,7.00
2022-08-26T07:23:50.247Z,6.50
2022-08-26T07:26:17.486Z,9.67
2022-08-26T07:31:42.698Z,9.50
2022-08-26T07:34:09.516Z,9.00
2022-08-26T07:36:36.172Z,9.00
2022-08-26T07:39:02.672Z,9.00
2022-08-26T07:41:31.081Z,9.20
2022-08-26T07:46:56.830Z,9.67
2022-08-26T07:49:23.450Z,10.00
2022-08-26T07:51:51.955Z,8.80
2022-08-26T07:54:19.882Z,10.67
2022-08-26T07:56:46.344Z,9.00
2022-08-26T08:02:00.400Z,8.83
2022-08-26T08:04:26.932Z,9.50
2022-08-26T08:06:54.196Z,9.67
2022-08-26T08:09:22.544Z,8.20
2022-08-26T08:11:51.381Z,8.80
2022-08-26T08:17:02.175Z,9.00
2022-08-26T08:19:36.636Z,8.50
2022-08-26T08:22:04.190Z,8.00
2022-08-26T08:24:43.425Z,8.00
2022-08-26T08:27:10.405Z,8.00
2022-08-26T08:32:21.753Z,9.00
2022-08-26T08:34:48.223Z,9.00
2022-08-26T08:37:14.618Z,7.00
2022-08-26T08:39:41.066Z,8.00
2022-08-26T08:42:07.575Z,5.00
2022-08-26T08:47:18.892Z,5.67
2022-08-26T08:49:47.121Z,6.00
2022-08-26T08:52:13.491Z,6.00
2022-08-26T08:54:40.725Z,5.50
2022-08-26T08:57:08.520Z,5.33
2022-08-26T09:02:18.917Z,6.00
2022-08-26T09:04:46.327Z,7.00
2022-08-26T09:07:12.776Z,4.67
2022-08-26T09:09:39.124Z,6.00
2022-08-26T09:12:05.487Z,5.00
2022-08-26T09:17:25.995Z,6.00
2022-08-26T09:19:53.267Z,6.00
2022-08-26T09:24:51.850Z,7.00
2022-08-26T09:27:19.407Z,6.75
2022-08-26T09:32:29.863Z,6.00
2022-08-26T09:34:56.232Z,6.00
2022-08-26T09:37:22.666Z,6.33
2022-08-26T09:39:49.079Z,6.00
2022-08-26T09:42:16.766Z,5.50
2022-08-26T09:47:27.827Z,5.33
2022-08-26T09:49:54.808Z,6.00
2022-08-26T09:52:22.086Z,6.25
2022-08-26T09:54:48.456Z,6.00
2022-08-26T09:57:15.685Z,5.00
2022-08-26T09:59:42.022Z,5.33
2022-08-26T10:02:12.293Z,4.25
2022-08-26T10:04:42.350Z,7.50
2022-08-26T10:07:12.373Z,7.43
2022-08-26T10:09:42.410Z,7.00
2022-08-26T10:12:09.033Z,7.00
2022-08-26T10:14:39.311Z,8.00
2022-08-26T10:17:06.836Z,7.00
2022-08-26T10:19:55.943Z,8.00
2022-08-26T10:22:21.891Z,9.00
2022-08-26T10:24:54.486Z,7.40
2022-08-26T10:27:21.455Z,7.00
2022-08-26T10:29:48.014Z,9.00
2022-08-26T10:32:14.881Z,8.00
2022-08-26T10:34:41.395Z,8.00
2022-08-26T10:37:13.472Z,8.00
2022-08-26T10:39:41.532Z,7.00
2022-08-26T10:42:09.895Z,7.60
2022-08-26T10:44:37.440Z,9.00
2022-08-26T10:47:08.407Z,11.00
2022-08-26T10:49:34.847Z,12.00
2022-08-26T10:52:01.337Z,14.00
2022-08-26T10:54:27.812Z,13.00
2022-08-26T10:56:55.393Z,14.00
2022-08-26T10:59:22.786Z,12.67
2022-08-26T11:01:52.636Z,13.33
2022-08-26T11:04:20.242Z,12.50
2022-08-26T11:06:50.006Z,13.00
2022-08-26T11:09:16.491Z,12.00
2022-08-26T11:11:42.961Z,13.00
2022-08-26T11:14:10.355Z,13.67
2022-08-26T11:16:42.890Z,14.00
2022-08-26T11:19:10.239Z,15.00
2022-08-26T11:21:36.758Z,15.00
2022-08-26T11:24:03.319Z,13.00
2022-08-26T11:26:43.141Z,14.00
2022-08-26T11:29:19.985Z,13.33
2022-08-26T11:31:47.532Z,13.00
2022-08-26T11:34:14.034Z,11.00
2022-08-26T11:36:40.509Z,13.00
2022-08-26T11:39:07.427Z,14.50
2022-08-26T11:41:34.823Z,13.00
2022-08-26T11:44:02.337Z,14.00
2022-08-26T11:46:29.000Z,15.00
2022-08-26T11:48:56.386Z,13.00
2022-08-26T11:51:24.378Z,13.67
2022-08-26T11:53:52.013Z,12.00
2022-08-26T11:56:19.413Z,13.00
2022-08-26T11:58:47.939Z,14.50
2022-08-26T12:01:14.435Z,12.50
2022-08-26T12:03:44.559Z,13.00
2022-08-26T12:06:12.059Z,13.67
2022-08-26T12:08:41.634Z,13.00
2022-08-26T12:11:08.132Z,13.00
2022-08-26T12:13:35.528Z,14.00
2022-08-26T12:16:04.431Z,16.00
2022-08-26T12:18:32.526Z,13.00
2022-08-26T12:21:01.182Z,13.00
2022-08-26T12:23:28.911Z,14.00
2022-08-26T12:25:55.596Z,10.00
2022-08-26T12:28:23.361Z,13.00
2022-08-26T12:30:50.732Z,13.67
2022-08-26T12:36:11.613Z,14.00
2022-08-26T12:38:39.425Z,13.00
2022-08-26T12:41:06.901Z,15.33
2022-08-26T12:43:34.381Z,11.00
2022-08-26T12:46:01.795Z,12.00
2022-08-26T12:51:13.630Z,12.67
2022-08-26T12:53:40.128Z,12.00
2022-08-26T12:56:06.634Z,13.00
2022-08-26T12:58:34.050Z,12.67
2022-08-26T13:01:00.636Z,13.00
2022-08-26T13:06:15.932Z,13.33
2022-08-26T13:08:43.713Z,12.00
2022-08-26T13:11:10.217Z,13.00
2022-08-26T13:13:37.636Z,14.00
2022-08-26T13:16:06.125Z,11.00
2022-08-26T13:21:17.495Z,13.33
2022-08-26T13:23:44.876Z,12.33
2022-08-26T13:26:11.379Z,12.50
2022-08-26T13:28:37.873Z,12.00
2022-08-26T13:31:05.413Z,13.33
2022-08-26T13:36:17.894Z,13.33
2022-08-26T13:38:45.266Z,12.00
2022-08-26T13:41:28.903Z,11.33
2022-08-26T13:43:57.052Z,13.00
2022-08-26T13:46:25.495Z,13.00
2022-08-26T13:51:35.808Z,12.00
2022-08-26T13:54:02.282Z,11.50
2022-08-26T13:56:28.790Z,12.50
2022-08-26T13:58:56.141Z,11.00
2022-08-26T14:01:22.607Z,11.50
2022-08-26T14:06:43.085Z,12.00
2022-08-26T14:09:11.448Z,13.00
2022-08-26T14:11:50.715Z,11.00
2022-08-26T14:14:21.211Z,11.50
2022-08-26T14:16:58.695Z,12.67
2022-08-26T14:22:30.682Z,12.33
2022-08-26T14:24:57.252Z,12.50
2022-08-26T14:27:23.721Z,12.00
2022-08-26T14:29:50.218Z,13.00
2022-08-26T14:32:17.898Z,12.00
2022-08-26T14:34:47.876Z,12.00
2022-08-26T14:37:15.391Z,7.00
2022-08-26T14:39:42.914Z,12.00
2022-08-26T14:42:10.296Z,12.00
2022-08-26T14:44:36.987Z,13.00
2022-08-26T14:47:04.466Z,11.00
2022-08-26T14:52:14.811Z,11.50
2022-08-26T14:54:42.204Z,12.33
2022-08-26T14:57:08.680Z,12.00
2022-08-26T14:59:35.202Z,11.50
2022-08-26T15:02:02.745Z,13.33
2022-08-26T15:07:23.081Z,12.00
2022-08-26T15:09:49.546Z,11.00
2022-08-26T15:12:16.237Z,10.00
2022-08-26T15:14:43.577Z,11.00
2022-08-26T15:17:10.100Z,11.00
2022-08-26T15:22:31.438Z,10.00
2022-08-26T15:24:57.930Z,10.00
2022-08-26T15:27:24.471Z,9.00
2022-08-26T15:29:51.061Z,9.00
2022-08-26T15:32:17.453Z,8.00
2022-08-26T15:37:30.589Z,8.00
2022-08-26T15:39:57.106Z,6.50
2022-08-26T15:42:23.664Z,8.00
2022-08-26T15:44:50.065Z,6.50
2022-08-26T15:47:17.335Z,7.00
2022-08-26T15:52:28.442Z,7.00
2022-08-26T15:54:55.778Z,7.50
2022-08-26T15:57:23.453Z,7.00
2022-08-26T15:59:51.029Z,6.00
2022-08-26T16:02:18.341Z,6.00
2022-08-26T16:07:29.370Z,7.00
2022-08-26T16:09:55.763Z,5.67
2022-08-26T16:12:22.177Z,6.00
2022-08-26T16:14:49.439Z,6.00
2022-08-26T16:17:19.193Z,5.00
2022-08-26T16:22:29.498Z,5.33
2022-08-26T16:25:00.540Z,6.50
2022-08-26T16:27:27.863Z,5.25
2022-08-26T16:29:54.282Z,4.67
2022-08-26T16:32:21.551Z,5.00
2022-08-26T16:37:42.645Z,5.00
2022-08-26T16:40:09.969Z,6.00
2022-08-26T16:42:36.455Z,6.00
2022-08-26T16:45:02.886Z,4.00
2022-08-26T16:47:30.151Z,6.00
2022-08-26T16:52:51.188Z,5.00
2022-08-26T16:55:22.029Z,5.00
2022-08-26T16:57:49.290Z,6.25
2022-08-26T17:00:15.725Z,7.00
2022-08-26T17:02:42.195Z,5.67
2022-08-26T17:08:04.120Z,7.00
2022-08-26T17:10:31.531Z,7.75
2022-08-26T17:12:57.985Z,5.00
2022-08-26T17:15:24.398Z,5.33
2022-08-26T17:17:51.645Z,6.50
2022-08-26T17:23:12.611Z,6.00
2022-08-26T17:25:39.037Z,4.67
2022-08-26T17:28:07.534Z,4.75
2022-08-26T17:30:39.816Z,4.67
2022-08-26T17:33:10.641Z,6.00
2022-08-26T17:38:33.262Z,6.00
2022-08-26T17:41:00.502Z,6.50
2022-08-26T17:43:26.919Z,8.00
2022-08-26T17:45:54.204Z,7.00
2022-08-26T17:48:20.691Z,9.00
2022-08-26T17:53:41.743Z,11.00
2022-08-26T17:56:09.131Z,13.67
2022-08-26T17:58:35.617Z,12.00
2022-08-26T18:01:02.132Z,12.00
2022-08-26T18:03:29.605Z,12.67
2022-08-26T18:08:51.020Z,12.00
2022-08-26T18:11:17.524Z,14.00
2022-08-26T18:13:46.984Z,14.00
2022-08-26T18:16:14.219Z,13.00
2022-08-26T18:18:40.692Z,14.00
2022-08-26T18:24:01.543Z,16.00
2022-08-26T18:26:28.952Z,15.00
2022-08-26T18:28:55.427Z,14.00
2022-08-26T18:31:22.880Z,14.00
2022-08-26T18:33:50.311Z,13.33
2022-08-26T18:39:10.941Z,12.00
2022-08-26T18:41:37.425Z,15.00
2022-08-26T18:44:04.862Z,14.67
2022-08-26T18:46:31.508Z,16.50
2022-08-26T18:48:58.029Z,16.00
2022-08-26T18:54:09.594Z,17.50
2022-08-26T18:56:36.098Z,16.50
2022-08-26T18:59:03.530Z,19.00
2022-08-26T19:01:31.060Z,14.67
2022-08-26T19:03:57.609Z,19.50
2022-08-26T19:09:09.027Z,16.00
2022-08-26T19:11:37.416Z,15.00
2022-08-26T19:14:10.500Z,16.00
2022-08-26T19:16:37.924Z,15.00
2022-08-26T19:19:04.444Z,15.00
2022-08-26T19:24:26.045Z,16.00
2022-08-26T19:26:57.566Z,15.50
2022-08-26T19:29:24.630Z,16.00
2022-08-26T19:31:51.186Z,16.00
2022-08-26T19:34:20.233Z,16.00
2022-08-26T19:39:32.579Z,15.00
2022-08-26T19:41:59.080Z,17.00
2022-08-26T19:44:25.574Z,16.50
2022-08-26T19:46:52.088Z,16.00
2022-08-26T19:49:18.576Z,16.00
2022-08-26T19:54:29.491Z,15.50
2022-08-26T19:56:56.899Z,17.50
2022-08-26T19:59:23.360Z,10.00
2022-08-26T20:02:00.641Z,17.50
2022-08-26T20:04:28.946Z,18.00
2022-08-26T20:09:50.545Z,19.00
2022-08-26T20:12:17.934Z,17.50
2022-08-26T20:14:45.313Z,16.00
2022-08-26T20:17:11.804Z,18.00
2022-08-26T20:19:39.196Z,17.50
2022-08-26T20:25:00.549Z,18.00
2022-08-26T20:27:27.265Z,18.00
2022-08-26T20:30:05.248Z,19.00
2022-08-26T20:32:35.603Z,20.00
2022-08-26T20:35:02.329Z,18.00
2022-08-26T20:40:14.203Z,20.00
2022-08-26T20:42:41.670Z,22.00
2022-08-26T20:45:09.218Z,20.00
2022-08-26T20:47:35.774Z,20.50
2022-08-26T20:50:02.340Z,21.00
2022-08-26T20:55:23.707Z,21.00
2022-08-26T20:57:51.164Z,23.00
2022-08-26T21:00:18.611Z,17.50
2022-08-26T21:02:48.377Z,21.00
2022-08-26T21:05:15.874Z,20.00
2022-08-26T21:10:36.769Z,28.50
2022-08-26T21:13:04.222Z,21.50
2022-08-26T21:15:31.682Z,24.00
2022-08-26T21:17:58.324Z,22.00
2022-08-26T21:20:25.770Z,20.00
2022-08-26T21:25:37.367Z,17.00
2022-08-26T21:28:04.810Z,17.00
2022-08-26T21:30:32.265Z,19.00
2022-08-26T21:32:59.682Z,19.00
2022-08-26T21:35:27.195Z,20.00
2022-08-26T21:40:39.067Z,18.00
2022-08-26T21:43:06.510Z,18.00
2022-08-26T21:45:34.002Z,18.50
2022-08-26T21:48:01.503Z,17.50
2022-08-26T21:50:28.969Z,19.00
2022-08-26T21:55:49.693Z,17.00
2022-08-26T21:58:17.343Z,20.00
2022-08-26T22:00:44.859Z,19.00
2022-08-26T22:03:12.301Z,16.00
2022-08-26T22:05:39.775Z,17.00
2022-08-26T22:10:52.373Z,19.00
2022-08-26T22:13:18.913Z,18.00
2022-08-26T22:15:46.387Z,19.00
2022-08-26T22:18:13.822Z,18.00
2022-08-26T22:20:41.259Z,17.00
2022-08-26T22:25:51.609Z,17.00
2022-08-26T22:28:19.024Z,16.00
2022-08-26T22:30:45.570Z,16.50
2022-08-26T22:33:12.991Z,17.00
2022-08-26T22:35:39.572Z,14.50
2022-08-26T22:40:52.433Z,17.50
2022-08-26T22:43:18.980Z,17.00
2022-08-26T22:45:45.568Z,18.00
2022-08-26T22:48:12.281Z,16.00
2022-08-26T22:50:39.772Z,17.00
2022-08-26T22:56:01.191Z,15.67
2022-08-26T22:58:30.962Z,16.00
2022-08-26T23:00:57.654Z,19.50
2022-08-26T23:03:27.012Z,18.50
2022-08-26T23:05:53.603Z,16.00
2022-08-26T23:11:04.955Z,18.00
2022-08-26T23:13:32.394Z,17.50
2022-08-26T23:15:58.996Z,15.00
2022-08-26T23:18:25.499Z,16.50
2022-08-26T23:20:52.019Z,17.50
2022-08-26T23:26:17.561Z,16.00
2022-08-26T23:28:44.352Z,17.00
2022-08-26T23:31:11.822Z,19.00
2022-08-26T23:33:39.273Z,18.50
2022-08-26T23:36:05.795Z,15.50
2022-08-26T23:41:26.389Z,16.50
2022-08-26T23:43:52.998Z,16.00
2022-08-26T23:46:20.476Z,19.00
2022-08-26T23:48:46.994Z,17.00
2022-08-26T23:51:14.451Z,17.50
2022-08-26T23:56:26.841Z,18.00
2022-08-26T23:58:54.378Z,18.00
